Hafer, Illinois
Current Conditions -  °F | °C
As of 1:48 PM on Monday 22 Dec 2014 (Local Time) from KMWA Reporting Station
Drizzle Drizzle  
Wind Chill: 50°   Ceiling: 800
Heat Index: 50°   Visibility: 5mi
Dew Point: 48°   Wind: 9mph
Humidity: 94%   Direction: 160°SSE
Pressure: 29.65"   Gusts: NA
Location:  37.7927°N, 89.0997°W
Report Text: KMWA 221948Z 16008KT 5SM DZ OVC008 10/09 A2965
Loading
Personal Weather Stations






























Interactive Weather Map New forecast layout! Learn more

10-Day Weather Forecast

Advertisements
Track Severe Weather on mobile